Time;durP1;ratioP1;P1;durP2;ratioP2;P2;SDS_P1;SDS_P2;PMS_P1;PMS_P2;Temp;Humidity;BMP_temperature;BMP_pressure;BME280_temperature;BME280_humidity;BME280_pressure;Samples;Min_cycle;Max_cycle;Signal;HPM_P1;HPM_P2
2022/09/26 06:28:44;;;;;;;;;0.00;0.00;;;;;;;;6151747;23;45333;-90
2022/09/26 06:31:14;;;;;;;;;0.00;0.00;;;;;;;;6175339;23;45378;-94
2022/09/26 06:33:39;;;;;;;;;0.00;0.00;;;;;;;;6125880;23;45502;-92
2022/09/26 06:36:05;;;;;;;;;0.00;0.00;;;;;;;;6150118;23;45509;-90
2022/09/26 06:38:31;;;;;;;;;0.00;0.00;;;;;;;;6151182;23;45403;-87
2022/09/26 06:40:56;;;;;;;;;0.00;0.00;;;;;;;;6174277;23;45367;-88
2022/09/26 06:43:21;;;;;;;;;0.00;0.00;;;;;;;;6124501;23;45451;-88
2022/09/26 06:45:47;;;;;;;;;0.00;0.00;;;;;;;;6124158;23;47380;-86
2022/09/26 06:48:13;;;;;;;;;0.00;0.00;;;;;;;;6151135;23;45396;-89
2022/09/26 06:50:38;;;;;;;;;0.00;0.00;;;;;;;;6149260;23;45732;-88
2022/09/26 06:53:04;;;;;;;;;0.00;0.00;;;;;;;;6151222;23;45506;-86
2022/09/26 06:55:29;;;;;;;;;0.00;0.00;;;;;;;;6150457;23;46027;-87
2022/09/26 06:57:54;;;;;;;;;0.00;0.00;;;;;;;;6124692;23;46041;-87
2022/09/26 07:00:19;;;;;;;;;0.00;0.00;;;;;;;;6150443;23;45272;-87
2022/09/26 07:02:49;;;;;;;;;0.00;0.00;;;;;;;;6150220;23;45348;-88
2022/09/26 07:05:14;;;;;;;;;0.00;0.00;;;;;;;;6122761;23;48218;-89
2022/09/26 07:07:41;;;;;;;;;0.00;0.00;;;;;;;;6150352;23;45308;-87
2022/09/26 07:10:06;;;;;;;;;0.00;0.00;;;;;;;;6124927;23;45426;-92
2022/09/26 07:12:31;;;;;;;;;0.00;0.00;;;;;;;;6152159;23;45462;-90
2022/09/26 07:14:58;;;;;;;;;0.00;0.00;;;;;;;;6127991;23;46953;-95
2022/09/26 07:17:23;;;;;;;;;0.00;0.00;;;;;;;;6131967;23;45308;-95
2022/09/26 07:19:49;;;;;;;;;0.00;0.00;;;;;;;;6128239;23;45258;-93
2022/09/26 07:22:15;;;;;;;;;0.00;0.00;;;;;;;;6127789;23;45216;-92
2022/09/26 07:24:40;;;;;;;;;0.00;0.00;;;;;;;;6125691;23;47266;-92
2022/09/26 07:27:05;;;;;;;;;0.00;0.00;;;;;;;;6152578;23;45395;-92
2022/09/26 07:29:31;;;;;;;;;0.00;0.00;;;;;;;;6121912;23;45431;-92
2022/09/26 07:31:57;;;;;;;;;0.00;0.00;;;;;;;;6173939;23;45363;-92
2022/09/26 07:34:23;;;;;;;;;0.00;0.00;;;;;;;;6122924;23;47126;-90
2022/09/26 07:36:49;;;;;;;;;0.00;0.00;;;;;;;;6126557;23;45521;-92
2022/09/26 07:39:14;;;;;;;;;0.00;0.00;;;;;;;;6124752;23;45470;-92
2022/09/26 07:41:39;;;;;;;;;0.00;0.00;;;;;;;;6174755;23;45735;-93
2022/09/26 07:44:04;;;;;;;;;0.00;0.00;;;;;;;;6124803;23;46935;-91
2022/09/26 07:51:59;;;;;;;;;0.00;0.00;;;;;;;;6151707;23;45241;-90
2022/09/26 07:54:24;;;;;;;;;0.00;0.00;;;;;;;;6128617;23;48078;-96
2022/09/26 07:56:50;;;;;;;;;0.00;0.00;;;;;;;;6128959;23;45579;-95
2022/09/26 07:59:15;;;;;;;;;0.00;0.00;;;;;;;;6127460;23;45721;-93
2022/09/26 08:01:40;;;;;;;;;0.00;0.00;;;;;;;;6127642;23;45743;-93
2022/09/26 08:04:06;;;;;;;;;0.00;0.00;;;;;;;;6154627;23;45891;-95
2022/09/26 08:06:39;;;;;;;;;0.00;0.00;;;;;;;;6133371;23;45703;-94
2022/09/26 08:09:16;;;;;;;;;0.00;0.00;;;;;;;;6134103;23;45400;-96
2022/09/26 08:11:46;;;;;;;;;0.00;0.00;;;;;;;;6134630;23;45320;-96
2022/09/26 08:49:49;;;;;;;;;0.00;0.00;;;;;;;;6196411;22;45381;-96
2022/09/26 08:52:29;;;;;;;;;0.00;0.00;;;;;;;;6199088;22;44774;-96
2022/09/26 08:55:38;;;;;;;;;0.00;0.00;;;;;;;;6196678;22;44789;-96
2022/09/26 09:00:47;;;;;;;;;0.00;0.00;;;;;;;;6194606;22;44863;-96
2022/09/26 09:03:52;;;;;;;;;0.00;0.00;;;;;;;;6204686;23;44606;-96
2022/09/26 09:07:00;;;;;;;;;0.00;0.00;;;;;;;;6128389;22;44754;-96
2022/09/26 09:09:32;;;;;;;;;0.00;0.00;;;;;;;;6184371;23;46025;-96
2022/09/26 09:12:19;;;;;;;;;0.00;0.00;;;;;;;;6197530;22;45479;-96
2022/09/26 09:15:06;;;;;;;;;0.00;0.00;;;;;;;;6196731;23;45199;-96
2022/09/26 09:18:14;;;;;;;;;0.00;0.00;;;;;;;;6198221;22;44822;-96
2022/09/26 09:20:52;;;;;;;;;0.00;0.00;;;;;;;;6098233;23;47306;-96
2022/09/26 09:23:20;;;;;;;;;0.00;0.00;;;;;;;;6095452;23;45376;-95
2022/09/26 09:25:52;;;;;;;;;0.00;0.00;;;;;;;;6102279;23;45414;-95
2022/09/26 09:28:45;;;;;;;;;0.00;0.00;;;;;;;;6105367;23;45559;-96
2022/09/26 09:31:26;;;;;;;;;0.00;0.00;;;;;;;;6107841;23;45388;-96
2022/09/26 09:34:04;;;;;;;;;0.00;0.00;;;;;;;;6021831;23;45376;-95
2022/09/26 09:36:49;;;;;;;;;0.00;0.00;;;;;;;;6043941;23;45426;-95
2022/09/26 09:39:25;;;;;;;;;0.00;0.00;;;;;;;;6043521;23;45333;-96
2022/09/26 09:42:03;;;;;;;;;0.00;0.00;;;;;;;;6048940;23;47791;-96
2022/09/26 09:44:56;;;;;;;;;0.00;0.00;;;;;;;;6049768;23;45386;-96
2022/09/26 09:47:45;;;;;;;;;0.00;0.00;;;;;;;;6047140;23;45578;-96
2022/09/26 09:50:42;;;;;;;;;0.00;0.00;;;;;;;;6090504;23;44842;-96
2022/09/26 09:53:32;;;;;;;;;0.00;0.00;;;;;;;;6066991;23;48206;-95
2022/09/26 09:56:25;;;;;;;;;0.00;0.00;;;;;;;;6067750;23;46040;-93
2022/09/26 09:59:10;;;;;;;;;0.00;0.00;;;;;;;;6064279;23;45372;-95
2022/09/26 10:01:56;;;;;;;;;0.00;0.00;;;;;;;;6068457;23;45467;-95
2022/09/26 10:04:24;;;;;;;;;0.00;0.00;;;;;;;;6053366;23;47242;-95
2022/09/26 10:06:52;;;;;;;;;0.00;0.00;;;;;;;;6098637;23;45471;-95
2022/09/26 10:09:40;;;;;;;;;0.00;0.00;;;;;;;;6100761;23;45484;-96
2022/09/26 10:12:29;;;;;;;;;0.00;0.00;;;;;;;;6103818;23;45982;-96
2022/09/26 10:15:04;;;;;;;;;0.00;0.00;;;;;;;;6110883;23;47081;-96
2022/09/26 10:17:30;;;;;;;;;0.00;0.00;;;;;;;;6133798;23;45402;-96
2022/09/26 10:20:01;;;;;;;;;0.00;0.00;;;;;;;;6136744;23;45383;-96
2022/09/26 10:22:49;;;;;;;;;;;;;;;;;;;;;
2022/09/26 10:25:22;;;;;;;;;0.00;0.00;;;;;;;;6127091;23;74275;-96
2022/09/26 10:27:50;;;;;;;;;0.00;0.00;;;;;;;;6136715;23;45179;-95
2022/09/26 10:30:18;;;;;;;;;0.00;0.00;;;;;;;;6123961;23;45673;-96
2022/09/26 10:32:48;;;;;;;;;0.00;0.00;;;;;;;;6125126;23;45903;-96
2022/09/26 10:35:22;;;;;;;;;0.00;0.00;;;;;;;;6128390;23;48248;-93
2022/09/26 10:37:57;;;;;;;;;0.00;0.00;;;;;;;;6180328;23;45229;-93
2022/09/26 10:40:44;;;;;;;;;0.00;0.00;;;;;;;;6181420;23;45393;-94
2022/09/26 10:43:36;;;;;;;;;0.00;0.00;;;;;;;;6183436;23;45460;-92
2022/09/26 10:46:09;;;;;;;;;0.00;0.00;;;;;;;;6154362;23;46981;-94
2022/09/26 10:48:37;;;;;;;;;0.00;0.00;;;;;;;;6194022;22;45344;-94
2022/09/26 10:51:04;;;;;;;;;0.00;0.00;;;;;;;;6185153;23;45361;-95
2022/09/26 10:53:37;;;;;;;;;0.00;0.00;;;;;;;;6183452;23;45561;-89
2022/09/26 10:56:14;;;;;;;;;0.00;0.00;;;;;;;;6183417;23;47184;-89
2022/09/26 10:58:41;;;;;;;;;0.00;0.00;;;;;;;;6160444;23;45229;-92
2022/09/26 11:01:17;;;;;;;;;0.00;0.00;;;;;;;;6220178;22;45901;-95
2022/09/26 11:03:44;;;;;;;;;40.67;40.00;;;;;;;;6225415;23;8837;-91
2022/09/26 11:06:23;;;;;;;;;0.00;0.00;;;;;;;;6228826;23;8736;-91
2022/09/26 11:08:56;;;;;;;;;0.00;0.00;;;;;;;;6225247;23;8747;-90
2022/09/26 11:11:21;;;;;;;;;0.00;0.00;;;;;;;;6229646;23;8854;-93
2022/09/26 11:14:02;;;;;;;;;0.00;0.00;;;;;;;;6228399;23;8771;-90
2022/09/26 11:16:28;;;;;;;;;0.00;0.00;;;;;;;;6227663;23;8755;-90
2022/09/26 11:21:37;;;;;;;;;0.00;0.00;;;;;;;;6256480;22;8754;-95
2022/09/26 11:29:32;;;;;;;;;0.00;0.00;;;;;;;;6235320;22;8797;-95
2022/09/26 11:31:58;;;;;;;;;0.00;0.00;;;;;;;;6236675;23;8717;-93
2022/09/26 11:34:27;;;;;;;;;0.00;0.00;;;;;;;;6202781;23;8795;-89
2022/09/26 11:37:00;;;;;;;;;0.00;0.00;;;;;;;;6193457;23;8763;-92
2022/09/26 11:39:44;;;;;;;;;0.33;0.33;;;;;;;;6225712;23;26596;-87
2022/09/26 11:42:12;;;;;;;;;0.00;0.00;;;;;;;;6185365;23;27725;-88
2022/09/26 11:44:40;;;;;;;;;0.00;0.00;;;;;;;;6201403;23;45265;-90
2022/09/26 11:47:24;;;;;;;;;0.00;0.00;;;;;;;;6199160;23;48147;-92
2022/09/26 11:49:49;;;;;;;;;0.00;0.00;;;;;;;;6223892;23;27147;-93
2022/09/26 11:52:34;;;;;;;;;0.00;0.00;;;;;;;;6216954;23;28394;-95
2022/09/26 11:54:59;;;;;;;;;0.00;0.00;;;;;;;;6191904;22;28294;-96
2022/09/26 12:15:55;;;;;;;;;0.00;0.00;;;;;;;;5666944;22;10516793;-96
2022/09/26 12:18:33;;;;;;;;;0.00;0.00;;;;;;;;6184371;23;345424;-96
2022/09/26 12:21:15;;;;;;;;;0.00;0.00;;;;;;;;6154570;23;811080;-94
2022/09/26 12:23:45;;;;;;;;;0.00;0.00;;;;;;;;5349726;23;5771243;-93
2022/09/26 12:26:30;;;;;;;;;0.00;0.00;;;;;;;;5814094;23;2117016;-95
2022/09/26 12:29:11;;;;;;;;;0.00;0.00;;;;;;;;6168830;23;236808;-95
2022/09/26 12:32:01;;;;;;;;;0.00;0.00;;;;;;;;4238984;23;11680429;-96
2022/09/26 12:34:28;;;;;;;;;0.00;0.00;;;;;;;;4521784;22;11375535;-96
2022/09/26 12:40:08;;;;;;;;;0.00;0.00;;;;;;;;4039924;22;43214470;-96
2022/09/26 12:42:44;;;;;;;;;0.00;0.00;;;;;;;;3472374;22;30162863;-95
2022/09/26 12:45:09;;;;;;;;;;;;;;;;;;2397703;23;33162854;-96
2022/09/26 12:48:03;;;;;;;;;0.00;0.00;;;;;;;;1457272;23;83275208;-96
2022/09/26 12:50:45;;;;;;;;;0.00;0.00;;;;;;;;1438547;23;78624435;-96
2022/09/26 12:53:24;;;;;;;;;0.00;0.00;;;;;;;;6258601;22;8765;-96
2022/09/26 12:55:52;;;;;;;;;0.00;0.00;;;;;;;;6217594;22;8786;-94
2022/09/26 12:58:36;;;;;;;;;0.00;0.00;;;;;;;;6227972;23;8761;-95
2022/09/26 13:01:13;;;;;;;;;0.00;0.00;;;;;;;;6226278;23;8683;-96
2022/09/26 13:03:57;;;;;;;;;0.00;0.00;;;;;;;;6225212;23;8746;-96
2022/09/26 13:06:24;;;;;;;;;0.00;0.00;;;;;;;;6224404;23;8750;-95
2022/09/26 13:08:52;;;;;;;;;0.00;0.00;;;;;;;;6224599;23;8855;-96
2022/09/26 13:11:29;;;;;;;;;0.00;0.00;;;;;;;;6229621;23;9196;-96
2022/09/26 13:13:54;;;;;;;;;0.00;0.00;;;;;;;;6227853;23;8800;-95
2022/09/26 13:16:28;;;;;;;;;0.00;0.00;;;;;;;;6226824;23;8766;-96
2022/09/26 13:18:56;;;;;;;;;0.00;0.00;;;;;;;;6230475;23;8698;-96
2022/09/26 13:21:32;;;;;;;;;0.00;0.00;;;;;;;;6231203;23;8710;-96
2022/09/26 13:24:07;;;;;;;;;0.00;0.00;;;;;;;;6233999;23;8722;-96
2022/09/26 13:26:36;;;;;;;;;0.00;0.00;;;;;;;;6235285;23;8781;-95
2022/09/26 13:29:02;;;;;;;;;0.00;0.00;;;;;;;;6235621;23;11375;-96
2022/09/26 13:31:46;;;;;;;;;0.00;0.00;;;;;;;;6238641;22;8754;-96
2022/09/26 13:34:39;;;;;;;;;0.00;0.00;;;;;;;;6242254;22;8710;-96
2022/09/26 13:39:46;;;;;;;;;0.00;0.00;;;;;;;;6236230;22;8713;-96
2022/09/26 13:48:09;;;;;;;;;0.00;0.00;;;;;;;;6229382;22;9131;-96
2022/09/26 13:58:40;;;;;;;;;1.00;1.00;;;;;;;;6236354;22;29482;-95
2022/09/26 14:04:07;;;;;;;;;0.00;0.00;;;;;;;;6224370;22;28760;-96
2022/09/26 14:06:36;;;;;;;;;0.00;0.00;;;;;;;;6242133;22;27770;-96
2022/09/26 14:09:24;;;;;;;;;0.00;0.00;;;;;;;;6217099;23;8713;-96
2022/09/26 14:11:50;;;;;;;;;0.00;0.00;;;;;;;;6217276;22;28474;-96
2022/09/26 14:14:20;;;;;;;;;0.00;0.00;;;;;;;;6180503;23;28370;-92
2022/09/26 14:16:46;;;;;;;;;0.00;0.00;;;;;;;;6200752;23;28386;-93
2022/09/26 14:19:20;;;;;;;;;0.00;0.00;;;;;;;;6200232;23;28405;-92
2022/09/26 14:21:57;;;;;;;;;0.00;0.00;;;;;;;;6206447;23;28508;-96
2022/09/26 14:24:25;;;;;;;;;0.00;0.00;;;;;;;;6203032;23;28405;-93
2022/09/26 14:27:11;;;;;;;;;0.00;0.00;;;;;;;;6216122;23;42264;-90
2022/09/26 14:29:41;;;;;;;;;0.00;0.00;;;;;;;;6047409;23;28614;-86
2022/09/26 14:32:06;;;;;;;;;0.00;0.00;;;;;;;;6075165;23;29922;-89
2022/09/26 14:34:42;;;;;;;;;0.00;0.00;;;;;;;;6046702;23;28952;-90
2022/09/26 14:37:23;;;;;;;;;0.00;0.00;;;;;;;;6065981;23;27210;-91
2022/09/26 14:40:11;;;;;;;;;0.00;0.00;;;;;;;;6071331;23;28439;-91
2022/09/26 14:42:38;;;;;;;;;0.00;0.00;;;;;;;;6051510;23;31578;-90
2022/09/26 14:45:05;;;;;;;;;0.00;0.00;;;;;;;;6053760;23;28811;-88
2022/09/26 14:47:39;;;;;;;;;0.00;0.00;;;;;;;;6071114;23;25771;-89
2022/09/26 14:50:10;;;;;;;;;0.00;0.00;;;;;;;;6070591;23;8986;-90
2022/09/26 14:52:37;;;;;;;;;0.00;0.00;;;;;;;;6072458;23;8808;-90
2022/09/26 14:55:04;;;;;;;;;0.00;0.00;;;;;;;;6071990;23;8749;-90
2022/09/26 14:57:33;;;;;;;;;0.00;0.00;;;;;;;;6073987;23;11442;-89
2022/09/26 14:59:59;;;;;;;;;0.00;0.00;;;;;;;;6073762;23;11427;-91
2022/09/26 15:02:40;;;;;;;;;0.00;0.00;;;;;;;;6072270;23;11435;-90
2022/09/26 15:05:08;;;;;;;;;0.00;0.00;;;;;;;;6071727;23;8754;-89
2022/09/26 15:07:35;;;;;;;;;0.00;0.00;;;;;;;;6224153;22;8755;-90
2022/09/26 15:10:00;;;;;;;;;0.00;0.00;;;;;;;;6239703;22;27998;-90
2022/09/26 15:12:37;;;;;;;;;0.00;0.00;;;;;;;;6224369;23;11483;-89
2022/09/26 15:15:23;;;;;;;;;0.00;0.00;;;;;;;;6220871;23;9378;-90
2022/09/26 15:17:51;;;;;;;;;0.00;0.00;;;;;;;;6221813;23;8778;-91
2022/09/26 15:20:18;;;;;;;;;0.00;0.00;;;;;;;;6222731;23;9670;-89
2022/09/26 15:22:44;;;;;;;;;0.00;0.00;;;;;;;;6223271;23;11425;-90
2022/09/26 15:25:18;;;;;;;;;0.00;0.00;;;;;;;;6224713;23;8764;-90
2022/09/26 15:27:45;;;;;;;;;0.00;0.00;;;;;;;;6251963;22;8836;-90
2022/09/26 15:30:14;;;;;;;;;1.00;1.00;;;;;;;;6221005;23;11433;-89
2022/09/26 15:32:40;;;;;;;;;0.00;0.00;;;;;;;;6248537;22;8768;-89
2022/09/26 15:35:05;;;;;;;;;0.00;0.00;;;;;;;;6246418;22;8751;-90
2022/09/26 15:37:34;;;;;;;;;0.00;0.00;;;;;;;;6224239;23;8744;-88
2022/09/26 15:40:19;;;;;;;;;0.00;0.00;;;;;;;;6222835;23;8809;-89
2022/09/26 15:42:57;;;;;;;;;0.00;0.00;;;;;;;;6222457;23;8842;-90
2022/09/26 15:45:28;;;;;;;;;0.00;0.00;;;;;;;;6220594;23;11472;-89
2022/09/26 15:47:55;;;;;;;;;0.00;0.00;;;;;;;;6222124;23;9474;-90
2022/09/26 15:50:23;;;;;;;;;0.00;0.00;;;;;;;;6222034;23;11428;-91
2022/09/26 15:52:54;;;;;;;;;0.00;0.00;;;;;;;;6224501;23;8755;-91
2022/09/26 15:55:22;;;;;;;;;0.00;0.00;;;;;;;;6220936;23;11495;-91
2022/09/26 15:57:49;;;;;;;;;0.00;0.00;;;;;;;;6221809;23;8754;-90
2022/09/26 16:00:15;;;;;;;;;0.00;0.00;;;;;;;;6223560;23;8850;-92
2022/09/26 16:02:40;;;;;;;;;0.00;0.00;;;;;;;;6222116;23;8770;-90
2022/09/26 16:05:07;;;;;;;;;0.00;0.00;;;;;;;;6220726;23;8755;-91
2022/09/26 16:07:32;;;;;;;;;0.00;0.00;;;;;;;;6221104;23;8763;-90
2022/09/26 16:09:58;;;;;;;;;0.00;0.00;;;;;;;;6247590;22;8775;-91
2022/09/26 16:12:27;;;;;;;;;0.00;0.00;;;;;;;;6222031;23;8779;-89
2022/09/26 16:14:57;;;;;;;;;0.00;0.00;;;;;;;;6221499;23;8696;-92
2022/09/26 16:17:33;;;;;;;;;0.00;0.00;;;;;;;;6247086;22;8744;-91
2022/09/26 16:20:01;;;;;;;;;0.00;0.00;;;;;;;;6220862;23;8739;-91
2022/09/26 16:22:39;;;;;;;;;0.00;0.00;;;;;;;;6221448;23;8759;-90
2022/09/26 16:25:17;;;;;;;;;0.00;0.00;;;;;;;;6223348;23;8837;-91
2022/09/26 16:27:42;;;;;;;;;0.00;0.00;;;;;;;;6220537;23;8763;-89
2022/09/26 16:30:22;;;;;;;;;0.00;0.00;;;;;;;;6218347;23;8771;-90
2022/09/26 16:32:48;;;;;;;;;0.00;0.00;;;;;;;;6222090;23;8786;-89
2022/09/26 16:35:18;;;;;;;;;0.00;0.00;;;;;;;;6245041;22;9639;-89
2022/09/26 16:37:54;;;;;;;;;0.00;0.00;;;;;;;;6217759;23;8874;-89
2022/09/26 16:40:19;;;;;;;;;0.00;0.00;;;;;;;;6219573;23;8743;-90
2022/09/26 16:42:45;;;;;;;;;0.00;0.00;;;;;;;;6246600;22;8747;-89
2022/09/26 16:45:12;;;;;;;;;0.00;0.00;;;;;;;;6217401;23;8747;-88
2022/09/26 16:47:41;;;;;;;;;0.00;0.00;;;;;;;;6222866;23;8720;-89
2022/09/26 16:50:29;;;;;;;;;0.00;0.00;;;;;;;;6218843;23;8751;-88
2022/09/26 16:52:55;;;;;;;;;0.00;0.00;;;;;;;;6220247;23;8771;-88
2022/09/26 16:55:21;;;;;;;;;0.00;0.00;;;;;;;;6219899;23;8834;-89
2022/09/26 16:57:46;;;;;;;;;0.00;0.00;;;;;;;;6222176;23;8803;-90
2022/09/26 17:02:59;;;;;;;;;0.00;0.00;;;;;;;;6223854;23;10242;-90
2022/09/26 17:05:24;;;;;;;;;0.00;0.00;;;;;;;;6230097;23;8810;-89
2022/09/26 17:07:50;;;;;;;;;0.00;0.00;;;;;;;;6223159;23;8842;-90
2022/09/26 17:10:17;;;;;;;;;0.00;0.00;;;;;;;;6231414;23;8751;-88
2022/09/26 17:12:43;;;;;;;;;0.00;0.00;;;;;;;;6231062;23;9570;-89
2022/09/26 17:15:16;;;;;;;;;0.00;0.00;;;;;;;;6223920;23;8727;-91
2022/09/26 17:17:41;;;;;;;;;0.00;0.00;;;;;;;;6221793;23;11445;-89
2022/09/26 17:20:11;;;;;;;;;0.00;0.00;;;;;;;;6246937;22;8858;-90
2022/09/26 17:22:36;;;;;;;;;0.00;0.00;;;;;;;;6223610;23;8748;-91
2022/09/26 17:25:05;;;;;;;;;0.00;0.00;;;;;;;;6223111;23;11422;-94
2022/09/26 17:27:33;;;;;;;;;0.00;0.00;;;;;;;;6221919;23;8777;-90
2022/09/26 17:29:59;;;;;;;;;0.00;0.00;;;;;;;;6220574;23;11441;-89
2022/09/26 17:32:28;;;;;;;;;0.00;0.00;;;;;;;;6223161;23;8754;-89
2022/09/26 17:35:23;;;;;;;;;0.00;0.00;;;;;;;;6235691;22;8859;-96
2022/09/26 17:37:50;;;;;;;;;0.00;0.00;;;;;;;;6223808;22;8768;-95
2022/09/26 17:40:17;;;;;;;;;0.00;0.00;;;;;;;;6190322;22;11439;-93
2022/09/26 17:42:46;;;;;;;;;0.00;0.00;;;;;;;;6235778;22;11446;-94
2022/09/26 17:45:11;;;;;;;;;0.00;0.00;;;;;;;;6234055;22;11470;-95
2022/09/26 17:47:37;;;;;;;;;0.00;0.00;;;;;;;;6237570;22;11431;-94
2022/09/26 17:52:39;;;;;;;;;0.00;0.00;;;;;;;;6273609;22;8717;-96
2022/09/26 17:55:05;;;;;;;;;0.00;0.00;;;;;;;;6241213;22;11480;-94
2022/09/26 17:57:33;;;;;;;;;0.00;0.00;;;;;;;;6243694;22;8748;-95
2022/09/26 18:03:06;;;;;;;;;0.00;0.00;;;;;;;;6250809;22;11364;-96
2022/09/26 18:05:35;;;;;;;;;0.00;0.00;;;;;;;;6215244;23;11329;-96
2022/09/26 18:08:05;;;;;;;;;0.00;0.00;;;;;;;;6184050;23;8751;-96
2022/09/26 18:10:32;;;;;;;;;0.00;0.00;;;;;;;;6246517;22;11410;-96
2022/09/26 18:13:02;;;;;;;;;0.00;0.00;;;;;;;;6208240;23;8781;-96
2022/09/26 18:20:52;;;;;;;;;0.00;0.00;;;;;;;;6251561;22;8746;-95
2022/09/26 18:23:19;;;;;;;;;0.00;0.00;;;;;;;;6272228;22;8700;-94
2022/09/26 18:25:46;;;;;;;;;0.00;0.00;;;;;;;;6232615;23;8736;-89
2022/09/26 18:28:12;;;;;;;;;0.00;0.00;;;;;;;;6228802;23;8736;-94
2022/09/26 18:30:38;;;;;;;;;0.00;0.00;;;;;;;;6230992;23;8790;-92
2022/09/26 18:33:04;;;;;;;;;0.00;0.00;;;;;;;;6234615;23;8820;-95
2022/09/26 18:35:30;;;;;;;;;0.00;0.00;;;;;;;;6204121;23;8823;-96
2022/09/26 18:42:57;;;;;;;;;0.00;0.00;;;;;;;;6247265;22;8902;-96
2022/09/26 18:45:27;;;;;;;;;0.00;0.00;;;;;;;;6232266;22;8775;-96
2022/09/26 18:47:52;;;;;;;;;0.00;0.00;;;;;;;;6230699;23;8708;-93
2022/09/26 18:50:24;;;;;;;;;0.00;0.00;;;;;;;;6227611;23;8860;-94
2022/09/26 18:52:50;;;;;;;;;0.00;0.00;;;;;;;;6223362;23;8782;-89
2022/09/26 18:58:22;;;;;;;;;0.00;0.00;;;;;;;;6164734;23;8779;-93
2022/09/26 19:00:55;;;;;;;;;0.00;0.00;;;;;;;;6164991;23;8861;-90
2022/09/26 19:03:21;;;;;;;;;0.00;0.00;;;;;;;;6168484;23;8736;-95
2022/09/26 19:05:47;;;;;;;;;0.00;0.00;;;;;;;;6143869;23;11410;-92
2022/09/26 19:08:25;;;;;;;;;0.00;0.00;;;;;;;;6170596;23;8830;-96
2022/09/26 19:10:51;;;;;;;;;0.00;0.00;;;;;;;;6158218;23;8941;-95
2022/09/26 19:13:16;;;;;;;;;0.00;0.00;;;;;;;;6163045;23;8795;-92
2022/09/26 19:15:41;;;;;;;;;0.00;0.00;;;;;;;;6161232;23;8771;-93
2022/09/26 19:18:06;;;;;;;;;0.00;0.00;;;;;;;;6139158;23;8897;-90
2022/09/26 19:20:31;;;;;;;;;0.00;0.00;;;;;;;;6158784;23;9555;-91
2022/09/26 19:22:57;;;;;;;;;0.00;0.00;;;;;;;;6160782;23;8787;-88
2022/09/26 19:25:23;;;;;;;;;0.00;0.00;;;;;;;;6135621;23;8851;-89
2022/09/26 19:27:50;;;;;;;;;0.00;0.00;;;;;;;;6135107;23;8763;-88
2022/09/26 19:30:18;;;;;;;;;0.00;0.00;;;;;;;;6135028;23;8880;-88
2022/09/26 19:32:47;;;;;;;;;0.00;0.00;;;;;;;;6136587;23;8885;-88
2022/09/26 19:35:21;;;;;;;;;0.00;0.00;;;;;;;;6205800;23;8755;-90
2022/09/26 19:37:46;;;;;;;;;0.00;0.00;;;;;;;;6223716;23;8735;-91
2022/09/26 19:40:12;;;;;;;;;0.00;0.00;;;;;;;;6223222;23;8780;-91
2022/09/26 19:42:38;;;;;;;;;0.00;0.00;;;;;;;;6224373;22;8772;-92
2022/09/26 19:45:03;;;;;;;;;0.00;0.00;;;;;;;;6223005;23;8842;-90
2022/09/26 19:47:30;;;;;;;;;0.00;0.00;;;;;;;;6222239;23;8771;-90
2022/09/26 19:49:55;;;;;;;;;0.00;0.00;;;;;;;;6246722;22;8770;-91
2022/09/26 19:52:21;;;;;;;;;0.00;0.00;;;;;;;;6219689;23;8787;-88
2022/09/26 19:54:47;;;;;;;;;0.00;0.00;;;;;;;;6222878;23;8839;-88
2022/09/26 19:57:13;;;;;;;;;0.00;0.00;;;;;;;;6225704;23;8756;-89
2022/09/26 19:59:45;;;;;;;;;0.00;0.00;;;;;;;;6225525;23;8763;-93
2022/09/26 20:02:49;;;;;;;;;;;;;;;;;;;;;
2022/09/26 20:05:53;;;;;;;;;0.00;0.00;;;;;;;;6225545;23;35730;-95
2022/09/26 20:08:54;;;;;;;;;;;;;;;;;;;;;
2022/09/26 20:14:55;;;;;;;;;0.00;0.00;;;;;;;;6135422;23;8721;-94
2022/09/26 20:17:29;;;;;;;;;0.00;0.00;;;;;;;;6136165;23;8709;-94
2022/09/26 20:20:04;;;;;;;;;3.00;1.00;;;;;;;;6134581;23;8704;-94
2022/09/26 20:22:29;;;;;;;;;0.00;0.00;;;;;;;;6135828;23;8798;-92
2022/09/26 20:24:54;;;;;;;;;0.00;0.00;;;;;;;;6135773;23;8871;-94
2022/09/26 20:27:26;;;;;;;;;0.00;0.00;;;;;;;;6135998;23;8780;-94
2022/09/26 20:32:36;;;;;;;;;0.00;0.00;;;;;;;;6138756;23;8792;-94
2022/09/26 20:38:01;;;;;;;;;0.00;0.00;;;;;;;;6050889;23;8835;-92
2022/09/26 20:40:26;;;;;;;;;0.00;0.00;;;;;;;;6137786;23;8768;-92
2022/09/26 20:42:59;;;;;;;;;0.00;0.00;;;;;;;;6137310;23;8765;-94
2022/09/26 20:45:28;;;;;;;;;0.00;0.00;;;;;;;;6136328;23;8777;-93
2022/09/26 20:47:54;;;;;;;;;0.00;0.00;;;;;;;;6138602;23;8761;-92
2022/09/26 20:50:25;;;;;;;;;0.00;0.00;;;;;;;;6135062;23;8824;-94
2022/09/26 20:52:52;;;;;;;;;0.00;0.00;;;;;;;;6136573;23;8785;-94
2022/09/26 20:55:50;;;;;;;;;;;;;;;;;;;;;
2022/09/26 20:58:15;;;;;;;;;0.00;0.00;;;;;;;;6134817;23;36238;-94
2022/09/26 21:00:41;;;;;;;;;0.00;0.00;;;;;;;;6135698;23;8923;-94
2022/09/26 21:03:08;;;;;;;;;0.00;0.00;;;;;;;;6135053;23;8781;-93
2022/09/26 21:05:34;;;;;;;;;0.00;0.00;;;;;;;;6134621;23;8765;-94
2022/09/26 21:07:59;;;;;;;;;0.00;0.00;;;;;;;;6134295;23;8851;-93
2022/09/26 21:10:31;;;;;;;;;0.00;0.00;;;;;;;;6134350;23;8816;-94
2022/09/26 21:12:57;;;;;;;;;0.00;0.00;;;;;;;;6134200;23;8823;-93
2022/09/26 21:15:23;;;;;;;;;0.00;0.00;;;;;;;;6205951;23;9493;-93
